This is the latest recevied weather packets stored in our database for station/object W1CAT. If no packets are shown the sender has not sent any weather packets the latest 10 day(s).
| Time | Temp. | Humidity | Pressure | Rain* | Wind** | Luminosity | Snow |
|---|---|---|---|---|---|---|---|
| 1778107320 | 5° C | 64% | - | 0 mm | - | - | - |
| 1778107016 | 5.56° C | 63% | - | 0 mm | - | - | - |
| 1778106712 | 5.56° C | 64% | - | 0 mm | - | - | - |
| 1778106409 | 6.11° C | 63% | - | 0 mm | - | - | - |
| 1778106105 | 6.67° C | 60% | - | 0 mm | - | - | - |
| 1778105803 | 6.67° C | 62% | - | 0 mm | - | - | - |
| 1778105501 | 6.67° C | 61% | - | 0 mm | - | - | - |
| 1778105192 | 7.22° C | 62% | - | 0 mm | - | - | - |
| 1778104887 | 7.78° C | 55% | - | 0 mm | - | - | - |
| 1778104584 | 7.22° C | 61% | - | 0 mm | - | - | - |
| 1778104280 | 6.67° C | 61% | - | 0 mm | - | - | - |
| 1778103977 | 6.67° C | 63% | - | 0 mm | - | - | - |
| 1778103674 | 6.67° C | 63% | - | 0 mm | - | - | - |
| 1778103372 | 7.22° C | 61% | - | 0 mm | - | - | - |
| 1778103069 | 8.33° C | 58% | - | 0 mm | - | - | - |
| 1778102767 | 7.78° C | 59% | - | 0 mm | - | - | - |
| 1778102461 | 7.22° C | 60% | - | 0 mm | - | - | - |
| 1778102157 | 7.22° C | 61% | - | 0 mm | - | - | - |
| 1778101854 | 7.78° C | 60% | - | 0 mm | - | - | - |
| 1778101550 | 8.33° C | 61% | - | 0 mm | - | - | - |
| 1778101247 | 7.78° C | 64% | - | 0 mm | - | - | - |
| 1778100944 | 7.78° C | 60% | - | 0 mm | - | - | - |
| 1778100639 | 6.67° C | 63% | - | 0 mm | - | - | - |
| 1778100338 | 6.67° C | 69% | - | 0 mm | - | - | - |
| 1778100034 | 7.22° C | 63% | - | 0 mm | - | - | - |
* Rain latest hour (hover to see other rain measurements)
** Current wind speed in m/s (hover to see current wind gust speed)